createdAt,value
2022-10-22T00:00:49.495Z,10.31
2022-10-22T00:31:10.396Z,10.30
2022-10-22T01:01:13.990Z,10.30
2022-10-22T01:31:17.041Z,10.26
2022-10-22T02:01:20.205Z,10.22
2022-10-22T02:31:23.054Z,10.28
2022-10-22T03:01:26.238Z,10.29
2022-10-22T03:31:29.315Z,10.47
2022-10-22T04:01:32.872Z,10.40
2022-10-22T04:31:35.723Z,10.49
2022-10-22T05:01:42.625Z,10.60
2022-10-22T05:31:46.577Z,10.78
2022-10-22T06:01:49.869Z,10.90
2022-10-22T06:31:52.836Z,11.03
2022-10-22T07:01:56.143Z,11.20
2022-10-22T07:32:00.041Z,11.33
2022-10-22T08:02:04.058Z,11.48
2022-10-22T08:32:08.039Z,11.72
2022-10-22T09:02:10.774Z,12.20
2022-10-22T09:32:14.696Z,12.47
2022-10-22T10:02:37.037Z,12.17
2022-10-22T10:32:42.095Z,12.14
2022-10-22T11:02:45.445Z,12.37
2022-10-22T11:32:48.889Z,12.64
2022-10-22T12:02:51.925Z,12.66
2022-10-22T12:32:55.437Z,12.61
2022-10-22T13:02:58.474Z,12.55
2022-10-22T13:33:01.827Z,12.60
2022-10-22T14:03:05.274Z,12.75
2022-10-22T14:33:08.146Z,12.89
2022-10-22T15:03:11.657Z,13.10
2022-10-22T15:33:15.680Z,12.97
2022-10-22T16:03:18.975Z,13.03
2022-10-22T16:33:22.425Z,13.11
2022-10-22T17:03:27.601Z,13.20
2022-10-22T17:33:32.461Z,13.14
2022-10-22T18:03:35.243Z,13.17
2022-10-22T18:33:39.248Z,13.03
2022-10-22T19:03:42.280Z,13.10
2022-10-22T19:33:46.213Z,13.04
2022-10-22T20:03:49.314Z,12.49
2022-10-22T20:33:53.551Z,12.27
2022-10-22T21:03:57.064Z,11.86
2022-10-22T21:34:00.515Z,11.53
2022-10-22T22:04:04.503Z,11.53
2022-10-22T22:34:08.103Z,11.89
2022-10-22T23:04:13.398Z,12.34
2022-10-22T23:34:17.008Z,12.63
